createdAt,value
2023-01-02T00:00:32.453Z,100734.50
2023-01-02T00:01:34.174Z,100729.03
2023-01-02T00:02:36.783Z,100726.38
2023-01-02T00:03:38.761Z,100733.41
2023-01-02T00:04:42.975Z,100731.69
2023-01-02T00:05:45.961Z,100731.69
2023-01-02T00:06:47.494Z,100729.88
2023-01-02T00:07:59.964Z,100736.06
2023-01-02T00:09:02.014Z,100732.53
2023-01-02T00:10:05.594Z,100734.25
2023-01-02T00:11:08.061Z,100733.41
2023-01-02T00:12:10.566Z,100724.41
2023-01-02T00:13:12.537Z,100726.97
2023-01-02T00:14:14.999Z,100721.63
2023-01-02T00:15:16.713Z,100727.81
2023-01-02T00:16:20.024Z,100734.78
2023-01-02T00:17:22.437Z,100728.66
2023-01-02T00:18:25.255Z,100731.31
2023-01-02T00:19:27.780Z,100736.66
2023-01-02T00:20:31.624Z,100736.47
2023-01-02T00:21:33.117Z,100738.19
2023-01-02T00:22:35.634Z,100745.16
2023-01-02T00:23:37.741Z,100739.84
2023-01-02T00:24:40.274Z,100735.34
2023-01-02T00:25:41.974Z,100738.88
2023-01-02T00:26:44.460Z,100735.22
2023-01-02T00:27:46.974Z,100742.38
2023-01-02T00:28:49.455Z,100741.53
2023-01-02T00:29:50.985Z,100739.59
2023-01-02T00:30:53.557Z,100750.25
2023-01-02T00:31:55.089Z,100747.59
2023-01-02T00:32:57.586Z,100737.88
2023-01-02T00:33:59.100Z,100738.56
2023-01-02T00:35:02.005Z,100744.91
2023-01-02T00:36:08.156Z,100751.06
2023-01-02T00:37:09.729Z,100745.88
2023-01-02T00:38:12.232Z,100752.91
2023-01-02T00:39:14.750Z,100751.22
2023-01-02T00:40:16.270Z,100755.56
2023-01-02T00:41:18.836Z,100747.59
2023-01-02T00:42:20.369Z,100749.41
2023-01-02T00:43:23.016Z,100738.72
2023-01-02T00:44:24.546Z,100736.06
2023-01-02T00:45:27.117Z,100737.03
2023-01-02T00:46:28.683Z,100741.53
2023-01-02T00:47:31.194Z,100734.38
2023-01-02T00:48:33.030Z,100729.16
2023-01-02T00:49:35.860Z,100736.19
2023-01-02T00:50:38.080Z,100732.84
2023-01-02T00:51:42.310Z,100730.19
2023-01-02T00:52:44.946Z,100738.19
2023-01-02T00:53:48.574Z,100735.50
2023-01-02T00:55:01.087Z,100732.84
2023-01-02T00:56:05.128Z,100728.50
2023-01-02T00:57:07.637Z,100735.50
2023-01-02T00:58:10.293Z,100731.16
2023-01-02T00:59:12.764Z,100736.34
2023-01-02T01:00:23.412Z,100730.19
2023-01-02T01:01:26.713Z,100732.84
2023-01-02T01:02:38.024Z,100723.31
2023-01-02T01:03:43.247Z,100732.13
2023-01-02T01:04:44.774Z,100734.78
2023-01-02T01:05:47.259Z,100724.13
2023-01-02T01:06:51.065Z,100730.31
2023-01-02T01:07:54.011Z,100723.16
2023-01-02T01:08:56.485Z,100723.31
2023-01-02T01:09:58.009Z,100719.63
2023-01-02T01:11:06.052Z,100724.97
2023-01-02T01:12:07.931Z,100724.97
2023-01-02T01:13:10.431Z,100718.81
2023-01-02T01:14:12.028Z,100729.47
2023-01-02T01:15:14.596Z,100722.47
2023-01-02T01:16:19.005Z,100727.81
2023-01-02T01:17:21.607Z,100720.78
2023-01-02T01:18:23.120Z,100720.78
2023-01-02T01:19:25.593Z,100717.13
2023-01-02T01:20:27.138Z,100717.25
2023-01-02T01:21:29.647Z,100720.78
2023-01-02T01:22:32.927Z,100714.59
2023-01-02T01:23:35.475Z,100720.78
2023-01-02T01:24:37.036Z,100716.28
2023-01-02T01:25:39.545Z,100712.78
2023-01-02T01:26:41.326Z,100715.56
2023-01-02T01:27:44.349Z,100709.41
2023-01-02T01:28:46.564Z,100710.38
2023-01-02T01:29:49.925Z,100705.03
2023-01-02T01:30:51.832Z,100709.53
2023-01-02T01:31:54.366Z,100700.69
2023-01-02T01:32:55.907Z,100712.19
2023-01-02T01:33:58.471Z,100710.38
2023-01-02T01:35:00.028Z,100706.88
2023-01-02T01:36:03.710Z,100707.03
2023-01-02T01:37:06.185Z,100701.69
2023-01-02T01:38:09.039Z,100709.69
2023-01-02T01:39:11.608Z,100698.31
2023-01-02T01:40:14.333Z,100694.66
2023-01-02T01:41:20.378Z,100699.16
2023-01-02T01:42:24.355Z,100708.13
2023-01-02T01:43:41.895Z,100709.94
2023-01-02T01:44:46.606Z,100706.47
2023-01-02T01:45:49.104Z,100707.28
2023-01-02T01:46:50.706Z,100702.97
2023-01-02T01:47:55.961Z,100701.13
2023-01-02T01:49:04.228Z,100696.63
2023-01-02T01:50:11.593Z,100697.63
2023-01-02T01:51:14.248Z,100702.97
2023-01-02T01:52:19.657Z,100705.63
2023-01-02T01:53:23.688Z,100700.28
2023-01-02T01:54:31.116Z,100705.47
2023-01-02T01:55:36.597Z,100702.78
2023-01-02T01:56:44.274Z,100703.63
2023-01-02T01:57:51.305Z,100713.31
2023-01-02T01:58:54.276Z,100712.47
2023-01-02T01:59:57.037Z,100713.31
2023-01-02T02:00:59.946Z,100704.47
2023-01-02T02:02:02.511Z,100707.03
2023-01-02T02:03:19.444Z,100712.34
2023-01-02T02:04:23.954Z,100710.66
2023-01-02T02:05:30.225Z,100718.50
2023-01-02T02:06:33.265Z,100716.69
2023-01-02T02:07:41.227Z,100721.03
2023-01-02T02:08:49.664Z,100713.03
2023-01-02T02:09:56.084Z,100720.06
2023-01-02T02:10:58.991Z,100720.06
2023-01-02T02:12:02.094Z,100719.09
2023-01-02T02:13:04.061Z,100729.75
2023-01-02T02:14:06.857Z,100726.13
2023-01-02T02:15:16.834Z,100726.13
2023-01-02T02:16:29.438Z,100720.78
2023-01-02T02:17:42.181Z,100723.44
2023-01-02T02:19:15.706Z,100722.47
2023-01-02T02:20:31.344Z,100724.28
2023-01-02T02:21:59.917Z,100726.97
2023-01-02T02:23:32.494Z,100717.25
2023-01-02T02:25:09.865Z,100720.78
2023-01-02T02:26:41.074Z,100726.25
2023-01-02T02:28:02.542Z,100722.59
2023-01-02T02:29:45.832Z,100729.75
2023-01-02T02:30:53.428Z,100734.09
2023-01-02T02:32:05.414Z,100720.78
2023-01-02T02:33:18.065Z,100724.28
2023-01-02T02:34:25.630Z,100727.81
2023-01-02T02:35:38.689Z,100734.78
2023-01-02T02:36:50.726Z,100738.19
2023-01-02T02:37:59.310Z,100737.16
2023-01-02T02:39:10.432Z,100723.84
2023-01-02T02:40:20.451Z,100728.19
2023-01-02T02:41:33.088Z,100727.34
2023-01-02T02:42:47.346Z,100715.84
2023-01-02T02:43:59.678Z,100715.03
2023-01-02T02:45:11.468Z,100706.19
2023-01-02T02:46:19.832Z,100696.50
2023-01-02T02:47:31.606Z,100696.66
2023-01-02T02:48:46.764Z,100691.31
2023-01-02T02:49:55.979Z,100696.66
2023-01-02T02:51:02.876Z,100702.78
2023-01-02T02:52:12.681Z,100701.13
2023-01-02T02:53:20.991Z,100697.47
2023-01-02T02:54:31.397Z,100702.00
2023-01-02T02:55:40.044Z,100694.00
2023-01-02T02:56:44.764Z,100697.47
2023-01-02T02:57:48.497Z,100690.47
2023-01-02T02:58:50.610Z,100686.81
2023-01-02T02:59:53.786Z,100682.31
2023-01-02T03:01:03.390Z,100681.47
2023-01-02T03:02:06.297Z,100694.81
2023-01-02T03:03:15.827Z,100698.31
2023-01-02T03:04:19.722Z,100698.47
2023-01-02T03:05:28.902Z,100713.47
2023-01-02T03:06:48.697Z,100716.13
2023-01-02T03:07:55.545Z,100713.63
2023-01-02T03:09:10.724Z,100714.47
2023-01-02T03:10:21.985Z,100718.97
2023-01-02T03:11:33.694Z,100726.13
2023-01-02T03:12:44.628Z,100718.13
2023-01-02T03:13:59.926Z,100715.44
2023-01-02T03:15:11.963Z,100717.13
2023-01-02T03:16:23.370Z,100720.78
2023-01-02T03:17:34.109Z,100729.75
2023-01-02T03:18:42.258Z,100726.13
2023-01-02T03:19:50.358Z,100724.28
2023-01-02T03:21:01.878Z,100711.94
2023-01-02T03:22:08.764Z,100715.56
2023-01-02T03:23:19.021Z,100725.25
2023-01-02T03:24:22.584Z,100728.06
2023-01-02T03:25:26.289Z,100734.38
2023-01-02T03:26:31.368Z,100725.41
2023-01-02T03:27:38.862Z,100734.25
2023-01-02T03:28:43.785Z,100728.06
2023-01-02T03:29:51.294Z,100705.03
2023-01-02T03:30:57.519Z,100715.69
2023-01-02T03:32:02.759Z,100714.00
2023-01-02T03:33:08.826Z,100717.69
2023-01-02T03:34:15.322Z,100722.16
2023-01-02T03:35:21.332Z,100719.63
2023-01-02T03:36:28.477Z,100719.63
2023-01-02T03:37:34.120Z,100722.28
2023-01-02T03:38:42.234Z,100725.94
2023-01-02T03:39:51.440Z,100723.28
2023-01-02T03:41:02.600Z,100716.28
2023-01-02T03:42:09.629Z,100724.28
2023-01-02T03:43:16.513Z,100731.44
2023-01-02T03:44:21.439Z,100725.25
2023-01-02T03:45:26.262Z,100722.59
2023-01-02T03:46:34.139Z,100720.78
2023-01-02T03:47:41.030Z,100713.75
2023-01-02T03:48:49.199Z,100707.56
2023-01-02T03:49:54.823Z,100714.75
2023-01-02T03:51:00.168Z,100727.91
2023-01-02T03:52:02.316Z,100729.75
2023-01-02T03:53:04.960Z,100731.56
2023-01-02T03:54:16.396Z,100734.22
2023-01-02T03:55:23.499Z,100739.56
2023-01-02T03:56:49.230Z,100746.59
2023-01-02T03:57:57.699Z,100739.56
2023-01-02T03:59:09.861Z,100737.91
2023-01-02T04:00:14.964Z,100745.91
2023-01-02T04:01:26.380Z,100737.91
2023-01-02T04:02:36.077Z,100736.22
2023-01-02T04:03:46.600Z,100728.34
2023-01-02T04:04:54.107Z,100733.53
2023-01-02T04:06:05.685Z,100733.53
2023-01-02T04:07:11.837Z,100734.50
2023-01-02T04:08:21.947Z,100734.50
2023-01-02T04:09:27.770Z,100735.53
2023-01-02T04:10:31.064Z,100723.84
2023-01-02T04:11:36.562Z,100735.53
2023-01-02T04:12:42.255Z,100746.19
2023-01-02T04:13:49.719Z,100738.19
2023-01-02T04:14:53.690Z,100739.84
2023-01-02T04:15:57.317Z,100746.03
2023-01-02T04:17:03.357Z,100736.22
2023-01-02T04:18:10.566Z,100726.50
2023-01-02T04:19:18.447Z,100732.69
2023-01-02T04:20:24.618Z,100732.69
2023-01-02T04:21:31.246Z,100727.38
2023-01-02T04:22:39.732Z,100734.50
2023-01-02T04:23:45.384Z,100742.50
2023-01-02T04:24:54.568Z,100733.53
2023-01-02T04:26:02.614Z,100741.53
2023-01-02T04:27:08.082Z,100741.53
2023-01-02T04:28:17.824Z,100737.19
2023-01-02T04:29:19.400Z,100731.00
2023-01-02T04:30:22.410Z,100731.84
2023-01-02T04:31:28.752Z,100738.19
2023-01-02T04:32:35.566Z,100740.84
2023-01-02T04:33:50.026Z,100732.84
2023-01-02T04:34:57.540Z,100730.19
2023-01-02T04:36:08.059Z,100737.34
2023-01-02T04:37:10.599Z,100743.50
2023-01-02T04:38:12.917Z,100740.84
2023-01-02T04:39:15.452Z,100732.84
2023-01-02T04:40:22.320Z,100741.66
2023-01-02T04:41:27.723Z,100740.69
2023-01-02T04:42:30.556Z,100745.19
2023-01-02T04:43:32.214Z,100746.88
2023-01-02T04:44:34.786Z,100750.50
2023-01-02T04:45:36.328Z,100754.88
2023-01-02T04:46:38.813Z,100746.88
2023-01-02T04:47:40.597Z,100746.88
2023-01-02T04:48:43.047Z,100741.53
2023-01-02T04:49:44.722Z,100738.88
2023-01-02T04:50:56.312Z,100740.69
2023-01-02T04:51:59.356Z,100741.53
2023-01-02T04:53:02.180Z,100742.38
2023-01-02T04:54:04.090Z,100747.56
2023-01-02T04:55:08.166Z,100751.06
2023-01-02T04:56:09.806Z,100745.72
2023-01-02T04:57:12.544Z,100748.28
2023-01-02T04:58:14.231Z,100744.59
2023-01-02T04:59:17.053Z,100743.63
2023-01-02T05:00:18.637Z,100745.44
2023-01-02T05:01:23.415Z,100742.66
2023-01-02T05:02:25.113Z,100747.13
2023-01-02T05:03:28.168Z,100751.50
2023-01-02T05:04:29.896Z,100751.34
2023-01-02T05:05:33.993Z,100748.66
2023-01-02T05:06:38.302Z,100745.88
2023-01-02T05:07:42.397Z,100745.75
2023-01-02T05:08:53.970Z,100752.78
2023-01-02T05:09:56.935Z,100761.47
2023-01-02T05:11:05.050Z,100759.50
2023-01-02T05:12:07.594Z,100753.16
2023-01-02T05:13:09.175Z,100763.72
2023-01-02T05:14:11.686Z,100758.25
2023-01-02T05:15:13.205Z,100766.09
2023-01-02T05:16:23.865Z,100772.09
2023-01-02T05:17:25.995Z,100770.44
2023-01-02T05:18:29.606Z,100772.94
2023-01-02T05:19:32.120Z,100763.97
2023-01-02T05:20:33.682Z,100782.50
2023-01-02T05:21:53.710Z,100766.50
2023-01-02T05:23:15.113Z,100776.34
2023-01-02T05:25:11.532Z,100771.00
2023-01-02T05:26:13.561Z,100780.09
2023-01-02T05:27:16.312Z,100772.94
2023-01-02T05:28:17.859Z,100781.66
2023-01-02T05:29:20.379Z,100776.34
2023-01-02T05:30:22.275Z,100776.34
2023-01-02T05:31:25.288Z,100780.53
2023-01-02T05:32:27.466Z,100774.34
2023-01-02T05:33:29.935Z,100776.03
2023-01-02T05:34:32.449Z,100776.91
2023-01-02T05:35:33.986Z,100783.03
2023-01-02T05:36:36.534Z,100778.72
2023-01-02T05:37:39.018Z,100773.22
2023-01-02T05:38:41.877Z,100786.56
2023-01-02T05:39:44.378Z,100784.72
2023-01-02T05:40:45.963Z,100789.38
2023-01-02T05:41:48.595Z,100785.72
2023-01-02T05:42:50.119Z,100799.03
2023-01-02T05:43:52.656Z,100792.03
2023-01-02T05:44:54.197Z,100792.03
2023-01-02T05:45:56.701Z,100789.22
2023-01-02T05:46:58.707Z,100787.41
2023-01-02T05:48:01.229Z,100789.22
2023-01-02T05:49:04.403Z,100800.72
2023-01-02T05:50:08.265Z,100803.41
2023-01-02T05:51:13.167Z,100800.72
2023-01-02T05:52:16.061Z,100802.56
2023-01-02T05:53:17.778Z,100806.06
2023-01-02T05:54:21.610Z,100798.06
2023-01-02T05:55:23.224Z,100793.72
2023-01-02T05:56:27.937Z,100790.34
2023-01-02T05:57:29.992Z,100795.69
2023-01-02T05:58:45.580Z,100794.00
2023-01-02T05:59:47.574Z,100795.97
2023-01-02T06:00:50.383Z,100800.63
2023-01-02T06:01:53.033Z,100798.94
2023-01-02T06:02:56.106Z,100795.41
2023-01-02T06:03:58.983Z,100807.91
2023-01-02T06:05:01.526Z,100808.91
2023-01-02T06:06:04.668Z,100808.91
2023-01-02T06:07:07.148Z,100808.91
2023-01-02T06:08:08.681Z,100798.38
2023-01-02T06:09:14.638Z,100803.84
2023-01-02T06:10:17.595Z,100810.00
2023-01-02T06:11:20.444Z,100804.84
2023-01-02T06:12:22.051Z,100808.34
2023-01-02T06:13:24.596Z,100802.19
2023-01-02T06:14:26.153Z,100809.44
2023-01-02T06:15:28.646Z,100801.44
2023-01-02T06:16:30.305Z,100804.13
2023-01-02T06:17:32.855Z,100802.47
2023-01-02T06:18:36.261Z,100805.13
2023-01-02T06:19:38.734Z,100805.13
2023-01-02T06:20:40.309Z,100812.28
2023-01-02T06:21:42.793Z,100814.09
2023-01-02T06:22:44.555Z,100824.75
2023-01-02T06:23:47.863Z,100813.13
2023-01-02T06:24:49.393Z,100810.47
2023-01-02T06:25:53.281Z,100819.31
2023-01-02T06:26:55.609Z,100813.97
2023-01-02T06:27:58.074Z,100813.13
2023-01-02T06:28:59.724Z,100820.13
2023-01-02T06:30:02.199Z,100820.97
2023-01-02T06:31:06.995Z,100820.13
2023-01-02T06:32:09.904Z,100813.81
2023-01-02T06:33:12.112Z,100823.50
2023-01-02T06:34:14.946Z,100823.50
2023-01-02T06:35:16.496Z,100823.50
2023-01-02T06:36:20.205Z,100812.84
2023-01-02T06:37:24.155Z,100816.34
2023-01-02T06:38:37.088Z,100820.84
2023-01-02T06:39:38.841Z,100823.50
2023-01-02T06:40:41.731Z,100825.16
2023-01-02T06:41:44.667Z,100827.84
2023-01-02T06:42:47.167Z,100826.16
2023-01-02T06:43:50.350Z,100820.69
2023-01-02T06:44:52.833Z,100841.88
2023-01-02T06:45:57.507Z,100827.72
2023-01-02T06:47:00.096Z,100836.69
2023-01-02T06:48:02.613Z,100841.03
2023-01-02T06:49:05.211Z,100842.84
2023-01-02T06:50:07.417Z,100839.34
2023-01-02T06:51:22.306Z,100840.19
2023-01-02T06:52:34.799Z,100841.16
2023-01-02T06:53:38.521Z,100835.84
2023-01-02T06:54:41.031Z,100839.34
2023-01-02T06:55:51.351Z,100836.69
2023-01-02T06:56:55.212Z,100840.19
2023-01-02T06:57:57.385Z,100844.84
2023-01-02T06:59:00.282Z,100835.84
2023-01-02T07:00:02.296Z,100838.50
2023-01-02T07:01:09.156Z,100838.50
2023-01-02T07:02:12.670Z,100840.34
2023-01-02T07:03:16.243Z,100841.16
2023-01-02T07:04:19.707Z,100850.00
2023-01-02T07:05:24.871Z,100848.34
2023-01-02T07:06:28.578Z,100838.50
2023-01-02T07:07:30.589Z,100844.84
2023-01-02T07:08:34.099Z,100849.16
2023-01-02T07:09:35.638Z,100849.16
2023-01-02T07:10:38.334Z,100846.50
2023-01-02T07:11:40.926Z,100857.16
2023-01-02T07:12:44.761Z,100856.34
2023-01-02T07:13:48.677Z,100859.84
2023-01-02T07:14:50.195Z,100858.16
2023-01-02T07:15:53.087Z,100859.13
2023-01-02T07:16:55.602Z,100856.63
2023-01-02T07:17:57.157Z,100859.31
2023-01-02T07:18:59.663Z,100861.13
2023-01-02T07:20:02.495Z,100855.78
2023-01-02T07:21:05.986Z,100862.94
2023-01-02T07:22:07.523Z,100869.13
2023-01-02T07:23:10.006Z,100877.97
2023-01-02T07:24:12.797Z,100872.63
2023-01-02T07:25:15.408Z,100868.13
2023-01-02T07:26:17.267Z,100870.78
2023-01-02T07:27:19.818Z,100877.13
2023-01-02T07:28:24.407Z,100871.78
2023-01-02T07:29:26.665Z,100884.41
2023-01-02T07:30:39.416Z,100881.84
2023-01-02T07:31:51.911Z,100886.34
2023-01-02T07:32:55.027Z,100885.50
2023-01-02T07:33:59.207Z,100885.66
2023-01-02T07:35:01.770Z,100896.31
2023-01-02T07:36:05.988Z,100885.78
2023-01-02T07:37:08.696Z,100892.06
2023-01-02T07:38:11.300Z,100898.25
2023-01-02T07:39:13.876Z,100888.56
2023-01-02T07:40:16.428Z,100889.69
2023-01-02T07:41:21.314Z,100895.03
2023-01-02T07:42:22.871Z,100897.69
2023-01-02T07:43:27.587Z,100901.19
2023-01-02T07:44:30.165Z,100896.84
2023-01-02T07:45:32.950Z,100911.00
2023-01-02T07:46:35.623Z,100912.84
2023-01-02T07:47:37.493Z,100903.19
2023-01-02T07:48:40.303Z,100906.81
2023-01-02T07:49:42.893Z,100911.16
2023-01-02T07:50:46.067Z,100913.84
2023-01-02T07:51:47.786Z,100912.16
2023-01-02T07:52:50.719Z,100918.44
2023-01-02T07:53:53.356Z,100913.97
2023-01-02T07:54:55.885Z,100910.44
2023-01-02T07:55:59.195Z,100919.44
2023-01-02T07:57:01.743Z,100915.09
2023-01-02T07:58:03.610Z,100921.38
2023-01-02T07:59:07.727Z,100922.38
2023-01-02T08:00:10.827Z,100926.03
2023-01-02T08:01:15.906Z,100929.66
2023-01-02T08:02:18.392Z,100935.00
2023-01-02T08:03:21.935Z,100935.00
2023-01-02T08:04:25.852Z,100927.97
2023-01-02T08:05:28.418Z,100944.81
2023-01-02T08:06:31.167Z,100933.28
2023-01-02T08:07:32.831Z,100935.97
2023-01-02T08:08:36.045Z,100949.28
2023-01-02T08:09:38.575Z,100948.47
2023-01-02T08:10:41.592Z,100947.63
2023-01-02T08:11:52.063Z,100942.41
2023-01-02T08:12:54.583Z,100948.59
2023-01-02T08:13:56.911Z,100945.25
2023-01-02T08:15:00.826Z,100959.41
2023-01-02T08:16:04.663Z,100960.38
2023-01-02T08:17:07.182Z,100962.31
2023-01-02T08:18:08.743Z,100964.88
2023-01-02T08:19:11.268Z,100967.66
2023-01-02T08:20:13.886Z,100967.53
2023-01-02T08:21:15.501Z,100971.16
2023-01-02T08:22:18.016Z,100973.81
2023-01-02T08:23:19.544Z,100973.81
2023-01-02T08:24:22.051Z,100974.69
2023-01-02T08:25:23.565Z,100975.53
2023-01-02T08:26:26.058Z,100972.88
2023-01-02T08:27:27.619Z,100968.50
2023-01-02T08:28:30.762Z,100980.84
2023-01-02T08:29:33.692Z,100988.16
2023-01-02T08:30:36.640Z,100985.50
2023-01-02T08:31:43.673Z,100988.16
2023-01-02T08:32:46.610Z,100989.81
2023-01-02T08:33:49.171Z,100988.84
2023-01-02T08:34:50.931Z,100991.50
2023-01-02T08:36:02.765Z,101004.16
2023-01-02T08:37:15.637Z,101002.31
2023-01-02T08:38:28.145Z,101011.88
2023-01-02T08:39:31.771Z,101006.53
2023-01-02T08:40:34.432Z,101010.88
2023-01-02T08:41:38.715Z,101001.22
2023-01-02T08:42:41.817Z,101003.03
2023-01-02T08:43:44.289Z,101016.19
2023-01-02T08:44:46.796Z,101003.88
2023-01-02T08:45:50.663Z,101020.72
2023-01-02T08:46:53.248Z,101022.53
2023-01-02T08:47:55.697Z,101036.13
2023-01-02T08:48:58.235Z,101030.81
2023-01-02T08:50:00.712Z,101029.09
2023-01-02T08:51:02.490Z,101044.25
2023-01-02T08:52:05.185Z,101051.53
2023-01-02T08:53:12.626Z,101077.47
2023-01-02T08:54:15.429Z,101080.81
2023-01-02T08:55:18.825Z,101095.16
2023-01-02T08:56:23.085Z,101086.34
2023-01-02T08:57:25.856Z,101094.06
2023-01-02T08:58:27.425Z,101102.50
2023-01-02T08:59:29.908Z,101108.84
2023-01-02T09:00:31.413Z,101110.53
2023-01-02T09:01:35.979Z,101109.59
2023-01-02T09:02:38.844Z,101112.88
2023-01-02T09:03:40.502Z,101109.16
2023-01-02T09:04:43.039Z,101104.34
2023-01-02T09:05:45.512Z,101107.34
2023-01-02T09:06:48.610Z,101099.72
2023-01-02T09:07:52.546Z,101106.91
2023-01-02T09:08:58.347Z,101108.09
2023-01-02T09:10:01.067Z,101114.63
2023-01-02T09:11:10.332Z,101113.31
2023-01-02T09:12:22.899Z,101109.09
2023-01-02T09:13:35.427Z,101113.56
2023-01-02T09:14:38.636Z,101125.84
2023-01-02T09:15:45.287Z,101122.38
2023-01-02T09:16:49.046Z,101127.56
2023-01-02T09:17:51.518Z,101130.09
2023-01-02T09:18:56.656Z,101133.47
2023-01-02T09:19:59.148Z,101132.53
2023-01-02T09:21:01.749Z,101127.31
2023-01-02T09:22:04.335Z,101129.97
2023-01-02T09:23:05.877Z,101131.78
2023-01-02T09:24:09.174Z,101137.94
2023-01-02T09:25:11.697Z,101139.75
2023-01-02T09:26:15.297Z,101139.66
2023-01-02T09:27:17.765Z,101137.09
2023-01-02T09:28:20.252Z,101144.13
2023-01-02T09:29:22.888Z,101146.78
2023-01-02T09:30:24.540Z,101145.81
2023-01-02T09:31:27.206Z,101147.38
2023-01-02T09:32:31.539Z,101142.06
2023-01-02T09:33:33.695Z,101141.09
2023-01-02T09:34:36.210Z,101146.41
2023-01-02T09:35:38.930Z,101145.44
2023-01-02T09:36:41.433Z,101151.50
2023-01-02T09:37:44.328Z,101152.19
2023-01-02T09:38:52.019Z,101152.91
2023-01-02T09:39:54.525Z,101155.47
2023-01-02T09:40:57.734Z,101161.63
2023-01-02T09:42:01.612Z,101158.03
2023-01-02T09:43:03.312Z,101167.66
2023-01-02T09:44:12.265Z,101161.38
2023-01-02T09:45:14.729Z,101164.03
2023-01-02T09:46:25.870Z,101167.41
2023-01-02T09:47:29.712Z,101170.06
2023-01-02T09:48:37.222Z,101175.28
2023-01-02T09:49:43.312Z,101177.69
2023-01-02T09:50:47.465Z,101180.22
2023-01-02T09:51:50.950Z,101169.59
2023-01-02T09:52:56.633Z,101174.78
2023-01-02T09:53:58.309Z,101178.06
2023-01-02T09:55:01.307Z,101183.25
2023-01-02T09:56:11.309Z,101188.44
2023-01-02T09:57:25.878Z,101188.19
2023-01-02T09:58:37.062Z,101196.19
2023-01-02T09:59:50.061Z,101184.59
2023-01-02T10:00:51.678Z,101193.28
2023-01-02T10:02:04.380Z,101195.69
2023-01-02T10:03:19.677Z,101198.34
2023-01-02T10:04:34.315Z,101205.38
2023-01-02T10:06:08.588Z,101213.34
2023-01-02T10:07:17.685Z,101211.66
2023-01-02T10:08:32.181Z,101212.41
2023-01-02T10:09:53.792Z,101214.31
2023-01-02T10:11:23.164Z,101209.00
2023-01-02T10:12:33.075Z,101214.31
2023-01-02T10:15:07.668Z,101222.19
2023-01-02T10:16:18.804Z,101224.72
2023-01-02T10:17:22.135Z,101227.38
2023-01-02T10:18:27.762Z,101229.91
2023-01-02T10:19:42.244Z,101227.13
2023-01-02T10:20:51.669Z,101228.81
2023-01-02T10:21:59.898Z,101227.88
2023-01-02T10:23:07.646Z,101224.22
2023-01-02T10:24:17.462Z,101233.91
2023-01-02T10:25:23.155Z,101226.75
2023-01-02T10:26:33.359Z,101232.94
2023-01-02T10:27:40.482Z,101232.94
2023-01-02T10:28:49.526Z,101238.25
2023-01-02T10:30:01.587Z,101239.22
2023-01-02T10:31:11.090Z,101230.28
2023-01-02T10:32:17.779Z,101221.44
2023-01-02T10:33:26.274Z,101223.97
2023-01-02T10:34:39.352Z,101222.03
2023-01-02T10:35:44.705Z,101227.38
2023-01-02T10:36:46.721Z,101224.69
2023-01-02T10:37:49.278Z,101230.78
2023-01-02T10:38:52.754Z,101220.13
2023-01-02T10:39:57.378Z,101220.88
2023-01-02T10:41:09.973Z,101226.91
2023-01-02T10:42:14.820Z,101221.31
2023-01-02T10:43:18.847Z,101222.19
2023-01-02T10:44:26.077Z,101230.88
2023-01-02T10:45:28.747Z,101228.94
2023-01-02T10:46:35.304Z,101221.69
2023-01-02T10:47:40.267Z,101238.50
2023-01-02T10:48:50.078Z,101241.88
2023-01-02T10:49:55.882Z,101248.03
2023-01-02T10:51:02.935Z,101246.22
2023-01-02T10:52:12.545Z,101243.56
2023-01-02T10:53:23.381Z,101244.28
2023-01-02T10:54:25.906Z,101239.69
2023-01-02T10:55:33.987Z,101244.88
2023-01-02T10:56:38.863Z,101242.81
2023-01-02T10:57:44.095Z,101239.19
2023-01-02T10:58:48.137Z,101239.06
2023-01-02T10:59:56.365Z,101230.00
2023-01-02T11:01:06.625Z,101231.41
2023-01-02T11:02:26.512Z,101242.66
2023-01-02T11:03:30.220Z,101239.03
2023-01-02T11:04:41.900Z,101234.56
2023-01-02T11:06:02.157Z,101229.94
2023-01-02T11:07:25.268Z,101227.16
2023-01-02T11:08:36.273Z,101232.34
2023-01-02T11:09:55.144Z,101236.00
2023-01-02T11:11:14.944Z,101235.88
2023-01-02T11:12:22.548Z,101237.69
2023-01-02T11:13:47.572Z,101236.00
2023-01-02T11:15:11.031Z,101245.31
2023-01-02T11:16:16.087Z,101247.28
2023-01-02T11:17:21.624Z,101244.00
2023-01-02T11:18:27.152Z,101241.50
2023-01-02T11:19:30.153Z,101257.56
2023-01-02T11:20:34.673Z,101248.03
2023-01-02T11:21:41.453Z,101250.94
2023-01-02T11:22:44.100Z,101252.00
2023-01-02T11:23:47.446Z,101246.69
2023-01-02T11:25:01.033Z,101249.34
2023-01-02T11:26:06.491Z,101248.53
2023-01-02T11:27:09.479Z,101254.81
2023-01-02T11:28:18.302Z,101259.28
2023-01-02T11:29:27.713Z,101253.13
2023-01-02T11:30:38.321Z,101255.78
2023-01-02T11:31:44.421Z,101256.63
2023-01-02T11:32:47.373Z,101253.13
2023-01-02T11:33:49.491Z,101253.97
2023-01-02T11:34:58.747Z,101258.34
2023-01-02T11:36:15.112Z,101262.66
2023-01-02T11:37:19.968Z,101254.69
2023-01-02T11:38:43.254Z,101257.13
2023-01-02T11:39:59.512Z,101250.69
2023-01-02T11:41:04.074Z,101250.56
2023-01-02T11:42:35.075Z,101249.59
2023-01-02T11:43:49.111Z,101259.03
2023-01-02T11:44:58.311Z,101255.38
2023-01-02T11:46:00.101Z,101251.63
2023-01-02T11:47:05.584Z,101257.56
2023-01-02T11:48:13.425Z,101250.28
2023-01-02T11:49:20.918Z,101250.28
2023-01-02T11:50:26.893Z,101244.97
2023-01-02T11:51:31.904Z,101248.59
2023-01-02T11:52:42.571Z,101253.91
2023-01-02T11:53:46.206Z,101254.66
2023-01-02T11:54:57.228Z,101264.19
2023-01-02T11:56:07.096Z,101262.38
2023-01-02T11:57:18.929Z,101263.22
2023-01-02T11:58:27.743Z,101269.53
2023-01-02T11:59:37.953Z,101271.34
2023-01-02T12:00:41.984Z,101274.97
2023-01-02T12:01:54.507Z,101271.47
2023-01-02T12:03:04.953Z,101274.25
2023-01-02T12:04:07.795Z,101273.41
2023-01-02T12:05:13.920Z,101272.53
2023-01-02T12:06:19.969Z,101272.53
2023-01-02T12:07:39.235Z,101271.69
2023-01-02T12:08:53.276Z,101272.69
2023-01-02T12:10:05.087Z,101270.88
2023-01-02T12:11:18.114Z,101269.88
2023-01-02T12:12:43.058Z,101279.31
2023-01-02T12:14:02.126Z,101280.88
2023-01-02T12:15:28.805Z,101279.81
2023-01-02T12:16:39.375Z,101284.03
2023-01-02T12:18:02.636Z,101287.56
2023-01-02T12:19:34.587Z,101283.19
2023-01-02T12:20:47.198Z,101286.69
2023-01-02T12:22:00.781Z,101288.50
2023-01-02T12:23:30.766Z,101292.03
2023-01-02T12:25:02.920Z,101293.84
2023-01-02T12:26:11.895Z,101294.69
2023-01-02T12:27:22.984Z,101300.88
2023-01-02T12:28:39.721Z,101295.66
2023-01-02T12:29:52.631Z,101295.66
2023-01-02T12:31:07.740Z,101297.34
2023-01-02T12:32:26.923Z,101307.00
2023-01-02T12:33:45.425Z,101309.81
2023-01-02T12:35:08.378Z,101317.09
2023-01-02T12:36:31.289Z,101318.06
2023-01-02T12:37:45.369Z,101320.84